Time;durP1;ratioP1;P1;durP2;ratioP2;P2;SDS_P1;SDS_P2;PMS_P1;PMS_P2;Temp;Humidity;BMP_temperature;BMP_pressure;BME280_temperature;BME280_humidity;BME280_pressure;Samples;Min_cycle;Max_cycle;Signal;HPM_P1;HPM_P2
2022/08/03 00:01:49;;;;;;;3.15;2.40;;;22.00;64.50;;;21.67;100.00;100464.84;5030467;28;20120;-80
2022/08/03 00:04:16;;;;;;;4.32;2.25;;;21.70;64.30;;;21.84;100.00;100470.00;5030023;28;20073;-79
2022/08/03 00:06:43;;;;;;;4.35;2.47;;;21.90;65.10;;;21.66;100.00;100468.50;5013802;28;20061;-79
2022/08/03 00:09:11;;;;;;;5.90;2.38;;;21.80;65.00;;;21.62;100.00;100458.06;5028923;28;20052;-78
2022/08/03 00:11:38;;;;;;;4.93;2.20;;;21.80;64.90;;;21.60;100.00;100476.06;5029998;28;20067;-78
2022/08/03 00:14:05;;;;;;;10.23;2.85;;;21.90;65.20;;;21.65;100.00;100472.16;5013663;28;20049;-81
2022/08/03 00:16:33;;;;;;;7.07;2.60;;;21.70;65.50;;;21.48;100.00;100470.63;5013355;28;20418;-78
2022/08/03 00:19:01;;;;;;;4.97;2.38;;;21.70;66.00;;;21.64;100.00;100469.56;5029424;28;20486;-81
2022/08/03 00:21:28;;;;;;;2.67;2.47;;;21.60;66.50;;;21.49;100.00;100475.00;5020291;28;20051;-80
2022/08/03 00:23:55;;;;;;;3.45;2.40;;;21.60;67.20;;;21.43;100.00;100470.06;5036794;28;20508;-79
2022/08/03 00:26:22;;;;;;;4.13;2.72;;;21.50;67.30;;;21.39;100.00;100471.22;5053791;28;20045;-79
2022/08/03 00:28:50;;;;;;;3.10;2.30;;;21.50;67.60;;;21.35;100.00;100475.09;5036202;28;20041;-80
2022/08/03 00:31:17;;;;;;;2.92;2.38;;;21.40;67.80;;;21.30;100.00;100471.84;5053711;28;20048;-80
2022/08/03 00:34:04;;;;;;;3.05;2.55;;;21.40;69.10;;;21.34;100.00;100468.03;5052847;28;20060;-80
2022/08/03 00:36:32;;;;;;;3.03;2.72;;;21.40;69.40;;;21.23;100.00;100469.59;5036782;28;20037;-78
2022/08/03 00:38:59;;;;;;;3.50;2.40;;;21.30;69.20;;;21.23;100.00;100464.25;5052784;28;20648;-78
2022/08/03 00:41:26;;;;;;;4.50;2.55;;;21.30;69.60;;;21.22;100.00;100459.00;5054478;28;20037;-79
2022/08/03 00:43:53;;;;;;;2.47;2.25;;;21.30;69.00;;;21.04;100.00;100459.25;5036225;28;20148;-77
2022/08/03 00:46:21;;;;;;;2.92;2.65;;;21.20;69.40;;;21.02;100.00;100463.88;5053222;28;20045;-78
2022/08/03 00:48:49;;;;;;;2.85;2.55;;;21.20;70.00;;;21.11;100.00;100459.72;5052907;28;20072;-79
2022/08/03 00:51:18;;;;;;;3.25;2.45;;;21.10;70.10;;;21.10;100.00;100461.56;5053141;28;20795;-78
2022/08/03 00:53:46;;;;;;;3.15;2.60;;;21.00;70.10;;;20.99;100.00;100461.41;5052876;28;20041;-78
2022/08/03 00:56:15;;;;;;;3.58;2.67;;;21.90;71.70;;;20.90;100.00;100462.00;5052545;28;20051;-79
2022/08/03 00:58:44;;;;;;;5.30;3.08;;;21.10;71.60;;;20.79;100.00;100460.88;5036479;28;20116;-78
2022/08/03 01:01:12;;;;;;;4.90;3.25;;;21.00;71.60;;;20.89;100.00;100461.16;5036269;28;20045;-78
2022/08/03 01:03:40;;;;;;;4.53;2.63;;;21.00;71.60;;;20.82;100.00;100454.47;5052873;28;20044;-78
2022/08/03 01:06:14;;;;;;;3.03;2.53;;;20.90;71.90;;;20.85;100.00;100465.00;5036012;28;20053;-78
2022/08/03 01:09:18;;;;;;;2.83;2.30;;;20.90;72.90;;;20.77;100.00;100457.44;5052777;28;20060;-79
2022/08/03 01:12:03;;;;;;;4.25;2.47;;;20.80;72.70;;;20.80;100.00;100465.31;5037099;28;20158;-81
2022/08/03 01:14:40;;;;;;;3.40;2.58;;;20.80;73.80;;;20.84;100.00;100452.59;5052445;28;20037;-79
2022/08/03 01:17:52;;;;;;;3.55;2.65;;;20.80;73.90;;;20.74;100.00;100457.63;5036568;28;20044;-78
2022/08/03 01:20:21;;;;;;;4.90;2.55;;;20.80;74.40;;;20.72;100.00;100454.19;5020544;28;20051;-78
2022/08/03 01:23:26;;;;;;;4.88;2.50;;;20.80;75.30;;;20.63;100.00;100453.00;5035917;28;20048;-79
2022/08/03 01:26:21;;;;;;;2.78;2.40;;;20.70;75.20;;;20.73;100.00;100445.22;5053112;28;20076;-79
2022/08/03 01:29:00;;;;;;;3.35;2.67;;;20.70;75.40;;;20.54;100.00;100451.78;5052046;28;20052;-78
2022/08/03 01:32:00;;;;;;;2.85;2.50;;;20.60;76.90;;;20.35;100.00;100444.06;5052662;28;20045;-79
2022/08/03 01:35:03;;;;;;;4.25;2.63;;;20.60;76.80;;;20.35;100.00;100443.25;5051657;28;20040;-79
2022/08/03 01:38:04;;;;;;;4.63;2.80;;;20.50;76.50;;;20.40;100.00;100447.34;5037035;28;20045;-78
2022/08/03 01:40:35;;;;;;;3.40;2.50;;;20.40;77.30;;;20.32;100.00;100430.09;5035001;28;20060;-78
2022/08/03 01:43:05;;;;;;;2.70;2.45;;;20.50;77.50;;;20.38;100.00;100441.22;5051825;28;20195;-78
2022/08/03 01:45:33;;;;;;;3.63;2.72;;;20.40;77.60;;;20.36;100.00;100442.28;5035708;28;20119;-77
2022/08/03 01:48:01;;;;;;;4.57;3.20;;;20.40;78.60;;;20.28;100.00;100445.44;5035605;28;20060;-79
2022/08/03 01:50:30;;;;;;;3.30;3.00;;;20.40;79.70;;;20.19;100.00;100433.53;5018361;28;20472;-79
2022/08/03 01:52:58;;;;;;;3.23;2.47;;;20.40;79.80;;;20.30;100.00;100451.53;5043423;28;20050;-80
2022/08/03 01:55:27;;;;;;;3.35;2.63;;;20.30;79.20;;;20.29;100.00;100440.94;5014789;28;20037;-78
2022/08/03 01:57:55;;;;;;;4.25;2.55;;;20.30;79.80;;;20.36;100.00;100432.44;5015602;28;20044;-79
2022/08/03 02:00:36;;;;;;;4.72;3.03;;;20.30;79.20;;;20.39;100.00;100429.59;5034495;28;20041;-79
2022/08/03 02:03:08;;;;;;;3.97;2.50;;;20.30;79.60;;;20.18;100.00;100438.97;5035579;28;20853;-79
2022/08/03 02:05:37;;;;;;;3.95;2.90;;;20.30;80.60;;;20.12;100.00;100432.19;5034769;28;20544;-80
2022/08/03 02:08:06;;;;;;;4.55;2.70;;;20.30;81.30;;;20.20;100.00;100443.25;5051337;28;20041;-79
2022/08/03 02:10:36;;;;;;;4.15;2.50;;;20.30;81.20;;;20.21;100.00;100438.75;5034789;28;20041;-79
2022/08/03 02:13:06;;;;;;;2.90;2.60;;;20.20;81.30;;;20.15;100.00;100445.38;5051648;28;20040;-80
2022/08/03 02:15:36;;;;;;;3.05;2.67;;;20.20;82.00;;;20.22;100.00;100445.84;5036381;28;20045;-80
2022/08/03 02:18:07;;;;;;;3.85;2.60;;;20.20;81.70;;;20.11;100.00;100436.69;5036623;28;20516;-80
2022/08/03 02:20:37;;;;;;;3.58;2.70;;;20.20;81.50;;;20.04;100.00;100443.34;5034771;28;20053;-78
2022/08/03 02:23:06;;;;;;;;;;;20.20;81.80;;;19.90;100.00;100443.31;5035665;28;20051;-77
2022/08/03 02:25:44;;;;;;;4.47;2.22;;;20.10;82.30;;;19.95;100.00;100443.94;5031294;28;19921;-78
2022/08/03 02:28:19;;;;;;;4.13;2.85;;;20.10;82.30;;;20.02;100.00;100450.59;5046759;28;20489;-77
2022/08/03 02:30:53;;;;;;;3.25;2.17;;;20.10;82.80;;;19.88;100.00;100439.91;5031470;28;20482;-80
2022/08/03 02:33:33;;;;;;;3.78;2.80;;;20.00;82.40;;;19.80;100.00;100435.91;5015117;28;20049;-77
2022/08/03 02:36:01;;;;;;;3.83;2.50;;;20.00;82.60;;;19.73;100.00;100445.22;5031615;28;20068;-78
2022/08/03 02:38:35;;;;;;;4.18;2.63;;;20.00;83.40;;;19.63;100.00;100436.09;5015423;28;20045;-79
2022/08/03 02:41:07;;;;;;;3.35;2.67;;;19.80;83.70;;;19.66;100.00;100438.56;5014657;28;20148;-78
2022/08/03 02:43:36;;;;;;;3.17;2.83;;;19.80;84.00;;;19.65;100.00;100429.69;5030194;28;20785;-79
2022/08/03 02:46:31;;;;;;;4.55;2.75;;;19.70;84.80;;;19.75;100.00;100435.34;5034053;28;20046;-78
2022/08/03 02:49:01;;;;;;;2.72;2.30;;;19.80;84.80;;;19.79;100.00;100439.53;5030834;28;20045;-77
2022/08/03 02:51:51;;;;;;;3.88;2.67;;;19.80;84.70;;;19.64;100.00;100429.78;5031487;28;20417;-79
2022/08/03 02:54:20;;;;;;;4.70;2.63;;;19.80;85.30;;;19.62;100.00;100427.22;5049625;28;20524;-78
2022/08/03 02:56:49;;;;;;;2.85;2.55;;;19.80;85.20;;;19.69;100.00;100433.91;5017915;28;20124;-78
2022/08/03 02:59:18;;;;;;;2.85;2.50;;;19.70;84.60;;;19.62;100.00;100437.03;5014094;28;20060;-78
2022/08/03 03:01:46;;;;;;;5.13;3.23;;;19.70;85.30;;;19.44;100.00;100431.88;5029662;28;20512;-78
2022/08/03 03:04:15;;;;;;;3.58;2.42;;;19.70;85.70;;;19.26;100.00;100442.66;5013162;28;20293;-78
2022/08/03 03:06:43;;;;;;;3.65;2.53;;;19.60;86.40;;;19.32;100.00;100435.28;4996716;28;20057;-78
2022/08/03 03:09:17;;;;;;;3.03;2.58;;;19.50;87.10;;;19.32;100.00;100435.28;5012732;28;20051;-79
2022/08/03 03:11:44;;;;;;;4.28;3.35;;;19.50;87.80;;;19.25;100.00;100430.28;5013779;28;20041;-78
2022/08/03 03:14:13;;;;;;;3.63;3.05;;;19.40;88.00;;;19.27;100.00;100435.53;5012612;28;20054;-78
2022/08/03 03:16:42;;;;;;;4.35;2.80;;;19.40;88.10;;;19.26;100.00;100431.16;5029882;28;20049;-78
2022/08/03 03:19:14;;;;;;;3.95;2.90;;;19.40;88.30;;;19.27;100.00;100433.72;5029025;28;20069;-78
2022/08/03 03:21:43;;;;;;;3.05;2.78;;;19.40;88.30;;;19.10;100.00;100440.06;5019879;28;20609;-78
2022/08/03 03:24:11;;;;;;;4.80;2.80;;;19.40;88.70;;;19.18;100.00;100436.94;5033828;28;20049;-79
2022/08/03 03:26:38;;;;;;;4.38;3.35;;;19.40;88.70;;;19.26;100.00;100433.81;5051251;28;20051;-79
2022/08/03 03:29:08;;;;;;;3.10;2.80;;;19.30;89.20;;;19.18;100.00;100430.75;5034828;28;20041;-78
2022/08/03 03:31:36;;;;;;;4.63;3.10;;;19.30;89.30;;;19.17;100.00;100429.03;5035144;28;20041;-78
2022/08/03 03:34:03;;;;;;;2.92;2.60;;;19.30;89.50;;;19.17;100.00;100429.91;5035124;28;20049;-78
2022/08/03 03:36:32;;;;;;;4.07;3.13;;;19.20;89.70;;;19.23;100.00;100426.84;5019486;28;20048;-79
2022/08/03 03:38:59;;;;;;;3.28;2.97;;;19.30;89.70;;;19.07;100.00;100434.03;5051118;28;20522;-79
2022/08/03 03:41:42;;;;;;;3.33;2.90;;;19.30;89.90;;;18.92;100.00;100431.28;5038399;28;20565;-78
2022/08/03 03:44:09;;;;;;;3.95;2.80;;;19.20;90.20;;;18.98;100.00;100433.63;5037307;28;20041;-78
2022/08/03 03:46:38;;;;;;;3.60;3.28;;;19.20;90.20;;;19.02;100.00;100425.47;5038737;28;20053;-79
2022/08/03 03:49:06;;;;;;;4.80;3.05;;;19.20;90.10;;;19.01;100.00;100423.75;5038577;28;20063;-79
2022/08/03 03:51:33;;;;;;;4.40;3.15;;;19.10;90.10;;;18.94;100.00;100431.22;5023061;28;20045;-79
2022/08/03 03:54:05;;;;;;;3.80;2.75;;;19.10;90.30;;;19.05;100.00;100420.81;5057050;28;20067;-79
2022/08/03 03:56:32;;;;;;;4.10;2.92;;;19.00;90.10;;;19.08;100.00;100435.75;5058393;28;20052;-79
2022/08/03 03:58:59;;;;;;;4.55;2.70;;;19.10;90.50;;;18.88;100.00;100428.88;5033852;28;20120;-79
2022/08/03 04:01:27;;;;;;;3.25;2.95;;;19.10;90.80;;;18.92;100.00;100433.13;5046692;28;20038;-78
2022/08/03 04:03:54;;;;;;;3.78;3.10;;;19.20;90.60;;;18.75;100.00;100428.75;5014987;28;20037;-78
2022/08/03 04:12:00;;;;;;;7.30;3.13;;;18.90;90.70;;;18.84;100.00;100430.91;5033918;28;20696;-78
2022/08/03 04:14:36;;;;;;;3.97;3.58;;;18.90;90.90;;;18.93;100.00;100432.16;5031059;28;20037;-78
2022/08/03 04:17:08;;;;;;;4.35;2.83;;;18.90;90.60;;;18.88;100.00;100432.44;4998844;28;20068;-78
2022/08/03 04:19:47;;;;;;;3.83;3.15;;;18.80;90.70;;;18.93;100.00;100434.84;5014898;28;20048;-78
2022/08/03 04:22:21;;;;;;;2.88;2.60;;;18.90;90.90;;;18.96;100.00;100423.97;5018827;28;20045;-77
2022/08/03 04:25:00;;;;;;;4.80;3.00;;;18.90;90.70;;;19.06;100.00;100435.88;5037416;28;20497;-81
2022/08/03 04:27:37;;;;;;;3.53;3.03;;;19.00;90.50;;;19.11;100.00;100438.25;5049964;28;20049;-78
2022/08/03 04:30:07;;;;;;;3.88;2.88;;;19.00;90.70;;;19.22;100.00;100437.63;5049214;28;20120;-78
2022/08/03 04:32:36;;;;;;;3.50;2.80;;;19.10;90.40;;;19.29;100.00;100430.97;5033374;28;20041;-78
2022/08/03 04:35:05;;;;;;;3.75;2.97;;;19.10;90.10;;;19.23;100.00;100437.53;5033113;28;20037;-77
2022/08/03 04:37:42;;;;;;;6.45;3.15;;;19.20;90.30;;;19.21;100.00;100433.25;5049566;28;20492;-78
2022/08/03 04:40:21;;;;;;;3.30;2.97;;;19.20;90.50;;;19.34;100.00;100444.88;5033477;28;20041;-79
2022/08/03 04:42:52;;;;;;;10.25;3.28;;;19.20;90.30;;;19.18;100.00;100442.28;5051692;28;20041;-77
2022/08/03 04:45:20;;;;;;;4.15;3.22;;;19.20;90.60;;;19.19;100.00;100440.47;5048889;28;20064;-78
2022/08/03 04:47:49;;;;;;;5.05;3.35;;;19.20;90.80;;;19.26;100.00;100440.00;5032524;28;20064;-77
2022/08/03 04:50:16;;;;;;;3.05;2.70;;;19.20;90.90;;;19.23;100.00;100442.84;5037672;28;20044;-78
2022/08/03 04:53:04;;;;;;;3.10;2.75;;;19.20;91.10;;;19.26;100.00;100449.84;5042730;28;20555;-78
2022/08/03 04:55:34;;;;;;;5.45;3.03;;;19.30;91.30;;;19.27;100.00;100447.06;5033121;28;20482;-78
2022/08/03 04:58:03;;;;;;;4.60;2.78;;;19.30;91.40;;;19.37;100.00;100444.72;5032529;28;20753;-78
2022/08/03 05:00:30;;;;;;;3.65;2.88;;;19.60;91.10;;;19.40;100.00;100452.53;5050021;28;20041;-78
2022/08/03 05:02:57;;;;;;;3.78;2.50;;;19.30;90.80;;;19.40;100.00;100459.66;5015950;28;20087;-78
2022/08/03 05:05:24;;;;;;;3.15;2.67;;;19.40;90.80;;;19.42;100.00;100452.41;5030998;28;20517;-78
2022/08/03 05:08:04;;;;;;;4.45;3.03;;;19.40;90.80;;;19.47;100.00;100452.16;5036086;28;20071;-77
2022/08/03 05:10:36;;;;;;;3.05;2.55;;;19.40;90.50;;;19.58;100.00;100452.38;5035478;28;20044;-78
2022/08/03 05:13:04;;;;;;;3.45;2.70;;;19.40;90.70;;;19.66;100.00;100454.56;5049629;28;20041;-78
2022/08/03 05:15:30;;;;;;;4.15;2.75;;;19.50;90.60;;;19.67;100.00;100457.16;5051555;28;20045;-78
2022/08/03 05:17:57;;;;;;;5.47;2.65;;;19.60;91.00;;;19.69;100.00;100465.94;5035539;28;20041;-78
2022/08/03 05:20:25;;;;;;;6.32;2.63;;;19.60;90.70;;;19.81;100.00;100466.97;5050372;28;20056;-77
2022/08/03 05:22:52;;;;;;;3.42;2.70;;;19.60;90.40;;;19.88;100.00;100469.25;5012236;28;20600;-77
2022/08/03 05:25:19;;;;;;;8.98;2.63;;;19.70;90.00;;;19.80;100.00;100473.28;5045237;28;20049;-78
2022/08/03 05:27:52;;;;;;;6.45;2.88;;;19.80;90.20;;;19.87;100.00;100475.56;5029227;28;20048;-78
2022/08/03 05:30:19;;;;;;;4.85;3.10;;;19.80;90.20;;;19.93;100.00;100475.22;5012613;28;20045;-78
2022/08/03 05:33:01;;;;;;;;;;;19.80;90.50;;;20.05;100.00;100479.78;5031931;28;20463;-78
2022/08/03 05:35:28;;;;;;;6.63;2.92;;;19.90;90.40;;;20.08;100.00;100481.41;5029281;28;19924;-78
2022/08/03 05:38:16;;;;;;;3.05;2.58;;;19.90;90.60;;;20.14;100.00;100483.72;5029650;28;20486;-78
2022/08/03 05:40:54;;;;;;;3.95;2.80;;;20.00;90.70;;;20.17;100.00;100479.97;5013892;28;20065;-78
2022/08/03 05:43:23;;;;;;;5.82;3.00;;;20.10;90.40;;;20.31;100.00;100487.97;5012793;28;20068;-78
2022/08/03 05:45:50;;;;;;;5.43;2.92;;;20.10;90.20;;;20.35;100.00;100488.66;5013236;28;20050;-78
2022/08/03 05:48:37;;;;;;;4.25;2.95;;;20.20;90.10;;;20.41;100.00;100490.94;5001510;28;20075;-77
2022/08/03 05:51:06;;;;;;;3.08;2.40;;;20.30;90.20;;;20.57;100.00;100482.81;5011756;28;20077;-78
2022/08/03 05:53:34;;;;;;;3.03;2.60;;;20.30;89.30;;;20.59;100.00;100491.56;5028410;28;20048;-78
2022/08/03 05:56:01;;;;;;;6.55;2.83;;;20.40;89.90;;;20.69;100.00;100490.03;5011946;28;20050;-78
2022/08/03 05:58:46;;;;;;;3.83;2.65;;;20.40;89.60;;;20.81;100.00;100482.19;5028430;28;20064;-78
2022/08/03 06:01:15;;;;;;;2.40;2.13;;;20.60;88.60;;;20.87;100.00;100481.78;5028148;28;20060;-78
2022/08/03 06:03:44;;;;;;;3.05;2.33;;;20.60;88.50;;;20.95;100.00;100492.00;5028471;28;20124;-78
2022/08/03 06:06:12;;;;;;;2.80;2.17;;;20.70;87.70;;;21.08;100.00;100486.69;5045979;28;20414;-78
2022/08/03 06:08:40;;;;;;;7.53;2.92;;;20.80;87.60;;;21.14;100.00;100483.56;5031576;28;20419;-78
2022/08/03 06:11:08;;;;;;;2.50;2.30;;;20.80;86.80;;;21.22;100.00;100483.06;5030875;28;20044;-78
2022/08/03 06:13:36;;;;;;;4.10;2.38;;;21.00;86.40;;;21.28;100.00;100480.00;5031160;28;20073;-78
2022/08/03 06:16:03;;;;;;;4.18;2.20;;;21.00;85.90;;;21.37;100.00;100478.50;5048188;28;20477;-78
2022/08/03 06:18:30;;;;;;;6.47;2.13;;;21.00;86.00;;;21.44;100.00;100478.97;5027883;28;20052;-78
2022/08/03 06:20:57;;;;;;;3.45;2.13;;;21.10;85.60;;;21.46;100.00;100471.69;5027430;28;20418;-78
2022/08/03 06:23:42;;;;;;;7.13;2.38;;;21.20;85.10;;;21.54;100.00;100470.19;5027962;28;20059;-78
2022/08/03 06:26:23;;;;;;;2.90;1.92;;;21.30;84.90;;;21.72;100.00;100475.25;5028835;28;20064;-78
2022/08/03 06:28:51;;;;;;;3.80;2.58;;;21.30;84.90;;;21.83;100.00;100474.50;5028820;28;20049;-78
2022/08/03 06:31:26;;;;;;;3.17;2.60;;;21.50;84.60;;;21.90;99.07;100470.44;5012744;28;20056;-78
2022/08/03 06:34:02;;;;;;;2.63;2.08;;;21.60;84.30;;;21.96;97.40;100466.47;5029385;28;20287;-78
2022/08/03 06:36:50;;;;;;;9.15;2.65;;;21.70;83.70;;;22.09;96.09;100472.69;5029975;28;20441;-78
2022/08/03 06:39:19;;;;;;;3.97;2.13;;;21.70;83.40;;;22.21;94.44;100467.41;5027589;28;20413;-77
2022/08/03 06:41:51;;;;;;;4.45;2.40;;;21.90;83.00;;;22.32;93.88;100462.13;5027120;28;20529;-77
2022/08/03 06:44:18;;;;;;;2.92;1.88;;;22.00;82.90;;;22.38;93.73;100467.03;5026944;28;20422;-77
2022/08/03 06:46:46;;;;;;;3.47;1.90;;;22.00;82.70;;;22.51;91.29;100461.69;5027177;28;20502;-77
2022/08/03 06:49:13;;;;;;;3.03;2.60;;;22.10;82.20;;;22.60;90.77;100464.66;5028259;28;20049;-78
2022/08/03 06:51:40;;;;;;;3.15;2.20;;;22.30;82.00;;;22.66;91.92;100464.22;5012109;28;20053;-78
2022/08/03 06:54:27;;;;;;;3.15;2.35;;;22.30;82.10;;;22.79;90.32;100467.72;5027766;28;20041;-78
2022/08/03 06:56:58;;;;;;;4.10;2.08;;;22.40;81.90;;;22.90;88.00;100466.03;5010958;28;20041;-77
2022/08/03 06:59:26;;;;;;;4.55;2.05;;;22.50;81.40;;;22.95;88.06;100470.09;5025501;28;20111;-77
2022/08/03 07:02:14;;;;;;;3.38;2.10;;;22.60;81.30;;;23.01;88.36;100471.44;5026461;28;20080;-77
2022/08/03 07:04:48;;;;;;;2.28;2.08;;;22.70;81.30;;;23.09;88.63;100460.97;5029497;28;20045;-77
2022/08/03 07:07:16;;;;;;;2.80;2.10;;;22.70;81.00;;;23.15;87.30;100467.72;5029468;28;20063;-77
2022/08/03 07:09:43;;;;;;;4.13;2.75;;;22.80;80.90;;;23.23;86.93;100464.44;5012847;28;20148;-77
2022/08/03 07:12:24;;;;;;;3.15;2.40;;;22.90;81.00;;;23.27;84.89;100465.97;5046610;28;20029;-78
2022/08/03 07:14:52;;;;;;;3.60;2.20;;;22.90;80.30;;;23.37;86.54;100469.66;5030100;28;20048;-77
2022/08/03 07:17:27;;;;;;;5.80;2.28;;;23.00;80.50;;;23.49;84.51;100470.56;5030043;28;20049;-77
2022/08/03 07:19:55;;;;;;;4.30;2.33;;;23.10;80.30;;;23.54;86.05;100469.34;5045233;28;20041;-78
2022/08/03 07:22:22;;;;;;;3.67;2.67;;;23.10;80.60;;;23.58;84.58;100470.81;5035227;28;20410;-77
2022/08/03 07:24:49;;;;;;;5.22;2.33;;;23.20;80.00;;;23.65;83.74;100469.38;5026171;28;20045;-77
2022/08/03 07:27:17;;;;;;;3.15;2.20;;;23.30;80.00;;;23.76;83.51;100476.59;5010129;28;20395;-77
2022/08/03 07:29:44;;;;;;;5.40;2.42;;;23.30;79.90;;;23.86;82.85;100474.88;5010029;28;20041;-78
2022/08/03 07:32:11;;;;;;;6.30;2.40;;;23.40;79.80;;;24.05;81.85;100474.31;5015027;28;20046;-77
2022/08/03 07:34:38;;;;;;;5.05;2.33;;;23.50;79.80;;;24.04;79.82;100477.97;5014220;28;20499;-77
2022/08/03 07:37:05;;;;;;;3.00;2.30;;;23.70;79.00;;;24.06;80.96;100476.00;5031534;28;20121;-77
2022/08/03 07:39:32;;;;;;;5.40;2.30;;;23.70;79.20;;;24.14;80.61;100470.03;5030547;28;20549;-77
2022/08/03 07:41:59;;;;;;;5.00;3.13;;;23.70;79.00;;;24.23;78.92;100476.50;5030141;28;20048;-76
2022/08/03 07:44:26;;;;;;;2.75;2.25;;;23.80;78.80;;;24.25;78.26;100471.84;5013766;28;20056;-76
2022/08/03 07:46:53;;;;;;;3.50;2.20;;;23.90;78.60;;;24.32;76.86;100466.84;5013850;28;20499;-77
2022/08/03 07:49:22;;;;;;;3.35;2.30;;;23.90;78.30;;;24.43;79.20;100474.88;5030602;28;20125;-77
2022/08/03 07:52:46;;;;;;;6.18;2.63;;;24.00;78.70;;;24.49;78.29;100469.00;5020004;28;20115;-77
2022/08/03 07:54:36;;;;;;;3.85;2.53;;;24.10;78.40;;;24.54;75.17;100475.88;5053406;28;20454;-77
2022/08/03 07:57:04;;;;;;;4.47;2.10;;;24.10;77.70;;;24.55;75.82;100464.97;5052014;28;20048;-78
2022/08/03 07:59:31;;;;;;;2.72;2.38;;;24.20;77.90;;;24.60;74.28;100464.59;5033365;28;20127;-79
2022/08/03 08:02:18;;;;;;;3.03;2.20;;;24.20;77.50;;;24.70;73.62;100462.84;5036000;28;20051;-78
2022/08/03 08:04:45;;;;;;;2.80;1.92;;;24.30;77.30;;;24.71;74.29;100461.00;5050818;28;20127;-77
2022/08/03 08:07:12;;;;;;;5.18;2.10;;;24.40;77.30;;;24.78;74.02;100463.09;5033794;28;20053;-77
2022/08/03 08:09:41;;;;;;;3.17;2.30;;;24.40;77.30;;;24.88;74.38;100471.25;5041248;28;20045;-77
2022/08/03 08:12:10;;;;;;;4.30;2.67;;;24.40;77.30;;;24.98;71.16;100462.44;5046808;28;20048;-77
2022/08/03 08:14:44;;;;;;;7.35;2.90;;;24.50;76.70;;;25.14;69.85;100453.94;5046690;28;20421;-79
2022/08/03 08:17:12;;;;;;;3.83;2.30;;;24.60;76.30;;;25.13;70.20;100457.56;5030076;28;20438;-78
2022/08/03 08:19:39;;;;;;;5.00;2.78;;;24.70;76.30;;;25.12;71.29;100454.03;5040846;28;20038;-78
2022/08/03 08:22:18;;;;;;;3.55;2.22;;;24.70;76.30;;;25.26;70.13;100452.03;5023799;28;20135;-78
2022/08/03 08:25:00;;;;;;;4.43;2.13;;;24.90;76.30;;;25.25;72.63;100451.16;5030382;28;20560;-78
2022/08/03 08:27:28;;;;;;;6.68;2.80;;;24.90;76.50;;;25.40;70.69;100451.69;5028561;28;20737;-78
2022/08/03 08:30:21;;;;;;;2.63;2.03;;;25.00;76.20;;;25.56;69.23;100455.81;5041684;28;20571;-79
2022/08/03 08:32:49;;;;;;;6.00;2.10;;;25.10;76.10;;;25.61;69.55;100446.34;5049084;28;20037;-78
2022/08/03 08:35:17;;;;;;;3.72;2.03;;;25.10;76.00;;;25.59;69.13;100448.28;5048164;28;20044;-77
2022/08/03 08:37:45;;;;;;;5.55;2.38;;;25.20;75.80;;;25.60;69.45;100443.75;5032045;28;20083;-78
2022/08/03 08:40:21;;;;;;;6.78;2.50;;;25.30;75.70;;;25.66;68.43;100448.59;5047165;28;20413;-78
2022/08/03 08:42:49;;;;;;;3.78;2.40;;;25.30;75.30;;;25.82;72.43;100448.13;5031513;28;20597;-77
2022/08/03 08:45:25;;;;;;;2.78;2.10;;;25.30;76.30;;;25.90;68.98;100452.84;5048583;28;20044;-79
2022/08/03 08:47:56;;;;;;;3.63;2.28;;;25.40;75.90;;;25.90;67.31;100450.16;5050271;28;20048;-78
2022/08/03 08:50:30;;;;;;;3.63;2.35;;;25.50;75.20;;;25.95;71.51;100438.97;5035394;28;20452;-76
2022/08/03 08:53:02;;;;;;;2.35;2.08;;;25.50;75.90;;;26.04;66.13;100439.00;5036309;28;20059;-76
2022/08/03 08:55:30;;;;;;;6.85;2.65;;;25.60;74.90;;;26.02;66.33;100432.03;5029997;28;20041;-76
2022/08/03 08:58:20;;;;;;;4.80;2.60;;;25.70;74.80;;;26.26;65.94;100445.19;5032168;28;20461;-76
2022/08/03 09:00:48;;;;;;;;;;;25.70;74.80;;;26.33;65.90;100443.69;5015574;28;20136;-77
2022/08/03 09:03:16;;;;;;;5.75;2.10;;;25.90;75.00;;;26.32;64.68;100436.59;5035208;28;19921;-79
2022/08/03 09:05:55;;;;;;;3.33;2.13;;;25.90;74.30;;;26.37;67.09;100436.13;5033221;28;20469;-78
2022/08/03 09:08:22;;;;;;;3.67;2.63;;;25.90;74.80;;;26.60;64.08;100427.81;5039616;28;20106;-78
2022/08/03 09:10:49;;;;;;;5.35;2.53;;;26.10;74.50;;;26.83;63.93;100431.09;5051392;28;20047;-78
2022/08/03 09:13:16;;;;;;;4.13;1.98;;;26.20;74.60;;;26.88;59.32;100428.03;5050205;28;20055;-77
2022/08/03 09:15:45;;;;;;;3.10;2.25;;;26.40;73.40;;;26.90;58.02;100426.84;5034301;28;20404;-78
2022/08/03 09:18:32;;;;;;;3.42;2.17;;;26.50;72.70;;;26.87;57.91;100424.44;5036577;28;20053;-79
2022/08/03 09:21:23;;;;;;;3.55;2.33;;;26.50;72.50;;;26.94;56.75;100423.91;5033698;28;20073;-77
2022/08/03 09:24:03;;;;;;;3.95;2.17;;;26.50;72.10;;;26.93;56.99;100419.47;5034902;28;20201;-77
2022/08/03 09:26:36;;;;;;;3.33;2.05;;;26.50;72.10;;;26.92;56.49;100415.94;5032250;28;20139;-77
2022/08/03 09:29:07;;;;;;;4.03;2.38;;;26.60;71.70;;;26.92;57.19;100417.75;5014539;28;20049;-78
2022/08/03 09:31:45;;;;;;;6.13;2.60;;;26.60;71.80;;;27.28;53.99;100418.88;5017575;28;20084;-78
2022/08/03 09:34:16;;;;;;;7.43;2.45;;;26.60;71.20;;;27.15;53.33;100418.31;5031118;28;20055;-78
2022/08/03 09:36:49;;;;;;;4.32;2.30;;;26.80;70.70;;;27.48;52.34;100412.56;5030349;28;20501;-75
2022/08/03 09:39:20;;;;;;;2.53;2.10;;;26.80;70.80;;;27.81;48.78;100413.06;5012715;28;20053;-75
2022/08/03 09:42:18;;;;;;;1.83;1.73;;;27.10;69.90;;;28.20;47.90;100418.31;5043578;28;20498;-77
2022/08/03 09:44:51;;;;;;;2.40;2.00;;;27.50;69.10;;;28.33;46.23;100414.38;5021739;28;20067;-75
2022/08/03 09:47:37;;;;;;;6.22;1.80;;;27.70;68.30;;;28.56;45.58;100406.69;5047620;28;20174;-76
2022/08/03 09:50:11;;;;;;;2.58;1.77;;;27.90;67.60;;;28.88;46.02;100410.75;5032190;28;20056;-76
2022/08/03 09:52:40;;;;;;;2.28;1.60;;;28.10;68.20;;;28.96;45.65;100407.25;5034619;28;20095;-75
2022/08/03 09:55:19;;;;;;;2.75;2.13;;;28.30;67.80;;;29.18;45.79;100405.88;5012474;28;20042;-75
2022/08/03 09:58:09;;;;;;;2.28;2.03;;;28.50;67.80;;;29.18;46.57;100405.06;5027967;28;20697;-75
2022/08/03 10:01:00;;;;;;;3.72;2.25;;;28.70;68.30;;;29.30;45.76;100392.94;5027344;28;20085;-80
2022/08/03 10:03:30;;;;;;;2.40;1.70;;;28.70;67.50;;;29.42;49.39;100398.97;5012520;28;20073;-76
2022/08/03 10:05:57;;;;;;;3.53;2.15;;;28.80;69.30;;;29.46;47.62;100402.22;5027409;28;20105;-76
2022/08/03 10:08:26;;;;;;;4.60;1.83;;;28.90;68.50;;;29.58;45.00;100400.91;5011137;28;20124;-75
2022/08/03 10:10:53;;;;;;;3.60;1.90;;;29.00;67.30;;;29.70;43.04;100390.66;5028215;28;20300;-76
2022/08/03 10:13:22;;;;;;;2.17;1.98;;;29.10;66.00;;;29.91;44.17;100394.81;5027395;28;20053;-76
2022/08/03 10:15:50;;;;;;;4.20;1.83;;;29.20;66.60;;;30.02;43.56;100390.94;5011372;28;20041;-76
2022/08/03 10:18:37;;;;;;;3.22;2.08;;;29.40;66.50;;;30.36;41.88;100388.22;5027212;28;20049;-76
2022/08/03 10:21:12;;;;;;;2.40;1.85;;;29.60;65.20;;;30.36;41.18;100388.22;5028817;28;20037;-76
2022/08/03 10:23:40;;;;;;;4.22;2.00;;;29.80;64.50;;;30.41;42.41;100379.56;5047066;28;20041;-76
2022/08/03 10:26:17;;;;;;;2.53;2.00;;;29.80;65.40;;;30.64;40.76;100387.09;5046867;28;20087;-75
2022/08/03 10:28:51;;;;;;;2.95;2.10;;;29.90;63.90;;;30.70;40.55;100384.53;5046620;28;20131;-76
2022/08/03 10:31:21;;;;;;;2.08;1.80;;;30.10;63.90;;;30.68;40.24;100380.31;5036367;28;20592;-75
2022/08/03 10:33:51;;;;;;;3.15;1.88;;;30.10;63.50;;;30.64;41.17;100378.94;5027076;28;20041;-76
2022/08/03 10:36:26;;;;;;;2.83;1.63;;;30.10;63.70;;;30.71;40.32;100371.84;5027026;28;20068;-76
2022/08/03 10:38:55;;;;;;;3.85;1.88;;;30.10;63.30;;;30.75;41.02;100364.16;5027896;28;20117;-76